createdAt,value
2023-02-27T00:00:01.278Z,3.2
2023-02-27T00:05:01.127Z,3.2
2023-02-27T00:10:01.175Z,3.2
2023-02-27T00:15:01.125Z,3.2
2023-02-27T00:20:01.142Z,3.2
2023-02-27T00:25:01.211Z,3.2
2023-02-27T00:30:01.169Z,3.2
2023-02-27T00:35:01.146Z,3.2
2023-02-27T00:40:01.149Z,3.2
2023-02-27T00:45:01.159Z,3.2
2023-02-27T00:50:01.141Z,3.2
2023-02-27T00:55:01.186Z,3.2
2023-02-27T01:00:01.199Z,3.2
2023-02-27T01:05:01.191Z,3.2
2023-02-27T01:10:01.208Z,3.3
2023-02-27T01:15:01.135Z,3.2
2023-02-27T01:20:01.162Z,3.2
2023-02-27T01:25:01.186Z,3.2
2023-02-27T01:30:01.241Z,3.2
2023-02-27T01:35:01.169Z,3.2
2023-02-27T01:40:01.222Z,3.3
2023-02-27T01:45:01.210Z,3.2
2023-02-27T01:50:01.160Z,3.3
2023-02-27T01:55:01.210Z,3.3
2023-02-27T02:00:01.150Z,3.3
2023-02-27T02:05:01.223Z,3.3
2023-02-27T02:10:01.135Z,3.3
2023-02-27T02:15:01.123Z,3.3
2023-02-27T02:20:01.148Z,3.3
2023-02-27T02:25:01.230Z,3.2
2023-02-27T02:30:01.145Z,3.2
2023-02-27T02:35:01.112Z,3.2
2023-02-27T02:40:01.132Z,3.2
2023-02-27T02:45:01.083Z,3.2
2023-02-27T02:50:01.196Z,3.2
2023-02-27T02:55:01.243Z,3.2
2023-02-27T03:00:01.188Z,3.2
2023-02-27T03:05:01.149Z,3.2
2023-02-27T03:10:01.141Z,3.2
2023-02-27T03:15:01.073Z,3.2
2023-02-27T03:20:01.169Z,3.2
2023-02-27T03:25:01.235Z,3.2
2023-02-27T03:30:01.126Z,3.2
2023-02-27T03:35:01.150Z,3.2
2023-02-27T03:40:01.211Z,3.2
2023-02-27T03:45:01.233Z,3.2
2023-02-27T03:50:01.184Z,3.2
2023-02-27T03:55:01.204Z,3.2
2023-02-27T04:00:01.201Z,3.2
2023-02-27T04:05:01.193Z,3.2
2023-02-27T04:10:01.116Z,3.2
2023-02-27T04:15:01.184Z,3.2
2023-02-27T04:20:01.094Z,3.2
2023-02-27T04:25:01.134Z,3.2
2023-02-27T04:30:01.146Z,3.1
2023-02-27T04:35:01.198Z,3.1
2023-02-27T04:40:01.117Z,3.1
2023-02-27T04:45:01.153Z,3.1
2023-02-27T04:50:01.119Z,3.1
2023-02-27T04:55:01.162Z,3.2
2023-02-27T05:00:01.157Z,3.2
2023-02-27T05:05:01.105Z,3.2
2023-02-27T05:10:01.204Z,3.2
2023-02-27T05:15:01.115Z,3.2
2023-02-27T05:20:01.156Z,3.2
2023-02-27T05:25:01.158Z,3.2
2023-02-27T05:30:01.224Z,3.2
2023-02-27T05:35:01.215Z,3.2
2023-02-27T05:40:01.197Z,3.2
2023-02-27T05:45:01.161Z,3.2
2023-02-27T05:50:01.157Z,3.2
2023-02-27T05:55:01.177Z,3.2
2023-02-27T06:00:01.151Z,3.2
2023-02-27T06:05:01.215Z,3.2
2023-02-27T06:10:01.136Z,3.2
2023-02-27T06:15:01.175Z,3.2
2023-02-27T06:20:01.161Z,3.2
2023-02-27T06:25:01.175Z,3.2
2023-02-27T06:30:01.193Z,3.1
2023-02-27T06:35:01.218Z,3.2
2023-02-27T06:40:01.268Z,3.2
2023-02-27T06:45:01.170Z,3.2
2023-02-27T06:50:01.313Z,3.2
2023-02-27T06:55:01.098Z,3.2
2023-02-27T07:00:01.130Z,3.2
2023-02-27T07:05:01.186Z,3.2
2023-02-27T07:10:01.108Z,3.2
2023-02-27T07:15:01.162Z,3.2
2023-02-27T07:20:01.107Z,3.2
2023-02-27T07:25:01.130Z,3.2
2023-02-27T07:30:01.150Z,3.2
2023-02-27T07:35:01.193Z,3.2
2023-02-27T07:40:01.132Z,3.2
2023-02-27T07:45:01.283Z,3.2
2023-02-27T07:50:01.153Z,3.2
2023-02-27T07:55:01.260Z,3.3
2023-02-27T08:00:01.209Z,3.3
2023-02-27T08:05:01.198Z,3.3
2023-02-27T08:10:01.171Z,3.2
2023-02-27T08:15:01.309Z,3.3
2023-02-27T08:20:01.118Z,3.2
2023-02-27T08:25:01.147Z,3.3
2023-02-27T08:30:01.169Z,3.3
2023-02-27T08:35:01.358Z,3.3
2023-02-27T08:40:01.160Z,3.3
2023-02-27T08:45:01.136Z,3.3
2023-02-27T08:50:01.186Z,3.3
2023-02-27T08:55:01.171Z,3.3
2023-02-27T09:00:01.285Z,3.3
2023-02-27T09:05:01.169Z,3.3
2023-02-27T09:10:01.142Z,3.3
2023-02-27T09:15:01.125Z,3.3
2023-02-27T09:20:01.140Z,3.3
2023-02-27T09:25:01.132Z,3.3
2023-02-27T09:30:01.197Z,3.3
2023-02-27T09:35:01.175Z,3.3
2023-02-27T09:40:01.223Z,3.4
2023-02-27T09:45:01.185Z,3.3
2023-02-27T09:50:01.125Z,3.4
2023-02-27T09:55:01.142Z,3.4
2023-02-27T10:00:01.425Z,3.4
2023-02-27T10:05:01.138Z,3.4
2023-02-27T10:10:01.113Z,3.4
2023-02-27T10:15:01.130Z,3.4
2023-02-27T10:20:01.112Z,3.4
2023-02-27T10:25:01.148Z,3.4
2023-02-27T10:30:01.098Z,3.4
2023-02-27T10:35:01.304Z,3.4
2023-02-27T10:40:01.139Z,3.5
2023-02-27T10:45:01.113Z,3.4
2023-02-27T10:50:01.181Z,3.4
2023-02-27T10:55:01.131Z,3.4
2023-02-27T11:00:01.094Z,3.5
2023-02-27T11:05:01.178Z,3.4
2023-02-27T11:10:01.178Z,3.4
2023-02-27T11:15:01.092Z,3.4
2023-02-27T11:20:01.082Z,3.4
2023-02-27T11:25:02.823Z,3.4
2023-02-27T11:30:01.100Z,3.4
2023-02-27T11:35:01.136Z,3.4
2023-02-27T11:40:01.159Z,3.4
2023-02-27T11:45:01.238Z,3.4
2023-02-27T11:50:01.154Z,3.4
2023-02-27T11:55:01.167Z,3.4
2023-02-27T12:00:01.093Z,3.4
2023-02-27T12:05:01.157Z,3.4
2023-02-27T12:10:01.212Z,3.4
2023-02-27T12:15:01.288Z,3.4
2023-02-27T12:20:01.138Z,3.4
2023-02-27T12:25:01.174Z,3.4
2023-02-27T12:30:01.149Z,3.4
2023-02-27T12:35:01.171Z,3.5
2023-02-27T12:40:01.202Z,3.5
2023-02-27T12:45:01.177Z,3.5
2023-02-27T12:50:01.144Z,3.5
2023-02-27T12:55:01.210Z,3.6
2023-02-27T13:00:01.138Z,3.6
2023-02-27T13:05:01.098Z,3.7
2023-02-27T13:10:01.230Z,3.6
2023-02-27T13:15:01.137Z,3.8
2023-02-27T13:20:01.159Z,3.8
2023-02-27T13:25:01.120Z,3.8
2023-02-27T13:30:01.153Z,3.9
2023-02-27T13:35:01.165Z,3.9
2023-02-27T13:40:01.230Z,3.9
2023-02-27T13:45:01.248Z,3.9
2023-02-27T13:50:01.125Z,3.9
2023-02-27T13:55:10.180Z,3.9
2023-02-27T14:00:01.130Z,3.8
2023-02-27T14:05:03.166Z,3.9
2023-02-27T14:10:01.150Z,3.9
2023-02-27T14:15:01.197Z,3.8
2023-02-27T14:20:01.294Z,3.8
2023-02-27T14:25:03.427Z,3.8
2023-02-27T14:30:01.155Z,3.8
2023-02-27T14:35:01.113Z,3.8
2023-02-27T14:40:02.917Z,3.8
2023-02-27T14:45:01.208Z,3.9
2023-02-27T14:50:01.199Z,3.8
2023-02-27T14:55:01.256Z,3.8
2023-02-27T15:00:01.187Z,3.8
2023-02-27T15:05:01.143Z,3.8
2023-02-27T15:10:03.239Z,3.8
2023-02-27T15:15:01.221Z,3.7
2023-02-27T15:20:01.116Z,3.8
2023-02-27T15:25:01.163Z,3.8
2023-02-27T15:30:01.187Z,3.8
2023-02-27T15:35:01.195Z,3.8
2023-02-27T15:40:01.150Z,3.7
2023-02-27T15:45:01.151Z,3.7
2023-02-27T15:50:01.183Z,3.7
2023-02-27T15:55:01.126Z,3.7
2023-02-27T16:00:01.137Z,3.7
2023-02-27T16:05:01.099Z,3.7
2023-02-27T16:10:01.183Z,3.7
2023-02-27T16:15:01.140Z,3.7
2023-02-27T16:20:02.001Z,3.7
2023-02-27T16:25:01.159Z,3.6
2023-02-27T16:30:01.120Z,3.6
2023-02-27T16:35:01.142Z,3.6
2023-02-27T16:40:01.241Z,3.6
2023-02-27T16:45:01.126Z,3.6
2023-02-27T16:50:01.220Z,3.6
2023-02-27T16:55:01.105Z,3.6
2023-02-27T17:00:01.214Z,3.6
2023-02-27T17:05:01.173Z,3.6
2023-02-27T17:10:01.280Z,3.5
2023-02-27T17:15:01.133Z,3.5
2023-02-27T17:20:01.146Z,3.5
2023-02-27T17:25:01.173Z,3.5
2023-02-27T17:30:01.200Z,3.5
2023-02-27T17:35:01.147Z,3.5
2023-02-27T17:40:01.173Z,3.5
2023-02-27T17:45:01.151Z,3.5
2023-02-27T17:50:01.294Z,3.5
2023-02-27T17:55:01.226Z,3.5
2023-02-27T18:00:01.161Z,3.5
2023-02-27T18:05:01.160Z,3.5
2023-02-27T18:10:01.194Z,3.5
2023-02-27T18:15:01.140Z,3.5
2023-02-27T18:20:01.249Z,3.5
2023-02-27T18:25:01.188Z,3.5
2023-02-27T18:30:01.163Z,3.4
2023-02-27T18:35:01.191Z,3.4
2023-02-27T18:40:01.155Z,3.4
2023-02-27T18:45:01.199Z,3.4
2023-02-27T18:50:01.151Z,3.4
2023-02-27T18:55:01.118Z,3.4
2023-02-27T19:00:01.222Z,3.5
2023-02-27T19:05:01.160Z,3.4
2023-02-27T19:10:01.127Z,3.4
2023-02-27T19:15:01.142Z,3.4
2023-02-27T19:20:01.251Z,3.4
2023-02-27T19:25:01.205Z,3.4
2023-02-27T19:30:01.207Z,3.4
2023-02-27T19:35:01.133Z,3.4
2023-02-27T19:40:01.154Z,3.4
2023-02-27T19:45:01.141Z,3.4
2023-02-27T19:50:01.186Z,3.4
2023-02-27T19:55:01.144Z,3.4
2023-02-27T20:00:01.175Z,3.3
2023-02-27T20:05:01.213Z,3.3
2023-02-27T20:10:01.390Z,3.3
2023-02-27T20:15:01.185Z,3.3
2023-02-27T20:20:01.219Z,3.3
2023-02-27T20:25:01.220Z,3.4
2023-02-27T20:30:01.202Z,3.3
2023-02-27T20:35:01.196Z,3.3
2023-02-27T20:40:01.161Z,3.3
2023-02-27T20:45:01.175Z,3.3
2023-02-27T20:50:01.252Z,3.3
2023-02-27T20:55:01.135Z,3.3
2023-02-27T21:00:01.162Z,3.3
2023-02-27T21:05:01.342Z,3.3
2023-02-27T21:10:01.210Z,3.3
2023-02-27T21:15:01.127Z,3.3
2023-02-27T21:20:01.193Z,3.3
2023-02-27T21:25:01.223Z,3.3
2023-02-27T21:30:01.160Z,3.3
2023-02-27T21:35:01.213Z,3.3
2023-02-27T21:40:01.130Z,3.3
2023-02-27T21:45:01.186Z,3.3
2023-02-27T21:50:01.173Z,3.3
2023-02-27T21:55:01.249Z,3.3
2023-02-27T22:00:01.237Z,3.3
2023-02-27T22:05:01.154Z,3.3
2023-02-27T22:10:01.194Z,3.3
2023-02-27T22:15:01.309Z,3.3
2023-02-27T22:20:01.246Z,3.3
2023-02-27T22:25:01.175Z,3.3
2023-02-27T22:30:01.120Z,3.3
2023-02-27T22:35:01.184Z,3.3
2023-02-27T22:40:01.199Z,3.3
2023-02-27T22:45:01.133Z,3.3
2023-02-27T22:50:01.159Z,3.3
2023-02-27T22:55:01.164Z,3.3
2023-02-27T23:00:01.206Z,3.3
2023-02-27T23:05:01.214Z,3.3
2023-02-27T23:10:01.178Z,3.3
2023-02-27T23:15:01.219Z,3.3
2023-02-27T23:20:01.120Z,3.3
2023-02-27T23:25:01.124Z,3.3
2023-02-27T23:30:01.159Z,3.3
2023-02-27T23:35:01.207Z,3.3
2023-02-27T23:40:01.192Z,3.3
2023-02-27T23:45:01.206Z,3.3
2023-02-27T23:50:01.241Z,3.3
2023-02-27T23:55:01.193Z,3.3
